createdAt,value
2023-02-11T00:00:17.637Z,39.03
2023-02-11T00:03:03.071Z,34.38
2023-02-11T00:06:00.321Z,35.55
2023-02-11T00:08:45.892Z,36.08
2023-02-11T00:11:30.812Z,40.97
2023-02-11T00:14:16.398Z,36.28
2023-02-11T00:17:01.418Z,38.38
2023-02-11T00:19:52.268Z,36.22
2023-02-11T00:22:37.106Z,38.45
2023-02-11T00:25:22.401Z,37.58
2023-02-11T00:28:07.551Z,38.08
2023-02-11T00:30:57.646Z,41.78
2023-02-11T00:33:42.966Z,38.50
2023-02-11T00:36:30.362Z,38.17
2023-02-11T00:39:15.610Z,40.83
2023-02-11T00:42:01.078Z,43.00
2023-02-11T00:44:46.240Z,44.60
2023-02-11T00:47:31.098Z,38.92
2023-02-11T00:50:16.176Z,45.00
2023-02-11T00:53:01.025Z,37.60
2023-02-11T00:55:45.759Z,38.70
2023-02-11T00:58:31.096Z,48.72
2023-02-11T01:01:16.313Z,43.92
2023-02-11T01:04:01.405Z,42.40
2023-02-11T01:06:46.132Z,43.67
2023-02-11T01:09:31.431Z,45.58
2023-02-11T01:12:16.202Z,45.05
2023-02-11T01:15:01.066Z,53.72
2023-02-11T01:17:46.155Z,40.72
2023-02-11T01:20:31.113Z,44.05
2023-02-11T01:23:16.533Z,43.28
2023-02-11T01:26:01.949Z,47.80
2023-02-11T01:28:47.074Z,48.65
2023-02-11T01:31:32.959Z,50.45
2023-02-11T01:34:18.092Z,47.15
2023-02-11T01:37:03.236Z,42.47
2023-02-11T01:39:48.189Z,40.60
2023-02-11T01:42:34.017Z,45.30
2023-02-11T01:45:43.737Z,46.55
2023-02-11T01:48:34.140Z,42.65
2023-02-11T01:51:25.077Z,45.30
2023-02-11T01:54:33.411Z,43.28
2023-02-11T01:57:25.439Z,45.28
2023-02-11T02:00:15.420Z,42.15
2023-02-11T02:03:05.210Z,43.90
2023-02-11T02:06:07.817Z,44.25
2023-02-11T02:09:03.421Z,44.42
2023-02-11T02:11:48.418Z,49.00
2023-02-11T02:14:34.147Z,45.25
2023-02-11T02:17:32.367Z,44.17
2023-02-11T02:20:31.733Z,44.55
2023-02-11T02:23:29.557Z,45.90
2023-02-11T02:26:52.161Z,52.20
2023-02-11T02:30:05.103Z,51.13
2023-02-11T02:33:24.925Z,49.65
2023-02-11T02:36:22.664Z,54.00
2023-02-11T02:39:29.427Z,45.88
2023-02-11T02:42:16.305Z,51.67
2023-02-11T02:45:01.762Z,53.28
2023-02-11T02:47:46.638Z,51.30
2023-02-11T02:50:35.953Z,48.22
2023-02-11T02:53:40.166Z,57.00
2023-02-11T02:56:55.240Z,56.08
2023-02-11T03:00:11.389Z,47.95
2023-02-11T03:03:27.473Z,57.45
2023-02-11T03:06:23.317Z,54.67
2023-02-11T03:09:28.336Z,48.72
2023-02-11T03:12:15.329Z,55.17
2023-02-11T03:15:04.014Z,56.00
2023-02-11T03:17:53.849Z,57.85
2023-02-11T03:20:43.647Z,54.53
2023-02-11T03:23:34.441Z,57.78
2023-02-11T03:26:32.711Z,60.28
2023-02-11T03:29:33.312Z,55.38
2023-02-11T03:32:34.859Z,55.20
2023-02-11T03:35:48.735Z,57.90
2023-02-11T03:38:39.699Z,52.83
2023-02-11T03:41:25.710Z,56.00
2023-02-11T03:44:14.166Z,52.17
2023-02-11T03:47:02.757Z,53.53
2023-02-11T03:49:52.186Z,62.38
2023-02-11T03:52:38.192Z,55.30
2023-02-11T03:55:25.865Z,57.50
2023-02-11T03:58:11.067Z,59.50
2023-02-11T04:00:56.166Z,54.83
2023-02-11T04:03:41.627Z,60.20
2023-02-11T04:06:26.295Z,56.30
2023-02-11T04:09:11.173Z,55.05
2023-02-11T04:11:56.068Z,63.70
2023-02-11T04:14:40.908Z,52.45
2023-02-11T04:17:26.653Z,55.45
2023-02-11T04:20:11.819Z,54.22
2023-02-11T04:22:57.318Z,59.10
2023-02-11T04:25:42.640Z,60.22
2023-02-11T04:28:29.395Z,52.40
2023-02-11T04:31:14.453Z,52.80
2023-02-11T04:33:59.650Z,54.35
2023-02-11T04:36:44.484Z,54.88
2023-02-11T04:39:29.332Z,47.28
2023-02-11T04:42:14.399Z,53.30
2023-02-11T04:44:59.501Z,56.40
2023-02-11T04:47:44.729Z,49.75
2023-02-11T04:50:30.037Z,54.42
2023-02-11T04:53:14.821Z,53.70
2023-02-11T04:55:59.716Z,51.58
2023-02-11T04:58:45.014Z,65.60
2023-02-11T05:01:30.417Z,55.42
2023-02-11T05:04:15.801Z,54.13
2023-02-11T05:07:00.820Z,50.15
2023-02-11T05:09:45.711Z,53.60
2023-02-11T05:12:30.832Z,53.20
2023-02-11T05:15:16.119Z,50.70
2023-02-11T05:18:01.007Z,52.45
2023-02-11T05:20:45.900Z,59.38
2023-02-11T05:23:30.910Z,56.08
2023-02-11T05:26:16.121Z,52.55
2023-02-11T05:29:01.585Z,50.50
2023-02-11T05:31:46.464Z,47.17
2023-02-11T05:34:31.325Z,51.10
2023-02-11T05:37:16.301Z,55.47
2023-02-11T05:40:01.840Z,52.35
2023-02-11T05:42:46.579Z,58.35
2023-02-11T05:45:31.659Z,53.85
2023-02-11T05:48:16.855Z,56.83
2023-02-11T05:51:01.916Z,55.92
2023-02-11T05:53:47.073Z,53.20
2023-02-11T05:56:31.864Z,54.42
2023-02-11T05:59:17.792Z,60.17
2023-02-11T06:02:02.648Z,57.53
2023-02-11T06:04:48.252Z,49.60
2023-02-11T06:07:33.146Z,58.08
2023-02-11T06:10:18.457Z,55.58
2023-02-11T06:13:03.901Z,57.25
2023-02-11T06:15:59.827Z,53.72
2023-02-11T06:18:45.158Z,49.10
2023-02-11T06:21:42.849Z,51.47
2023-02-11T06:24:54.690Z,50.85
2023-02-11T06:27:33.835Z,48.92
2023-02-11T06:30:19.465Z,45.88
2023-02-11T06:33:04.918Z,46.47
2023-02-11T06:35:50.898Z,53.90
2023-02-11T06:38:36.491Z,48.53
2023-02-11T06:41:21.626Z,45.67
2023-02-11T06:44:07.032Z,44.67
2023-02-11T06:46:53.187Z,47.63
2023-02-11T06:49:38.314Z,46.78
2023-02-11T06:52:24.605Z,49.05
2023-02-11T06:55:09.745Z,53.05
2023-02-11T06:57:54.648Z,46.53
2023-02-11T07:00:40.196Z,47.67
2023-02-11T07:03:25.284Z,44.38
2023-02-11T07:06:14.494Z,53.08
2023-02-11T07:08:59.666Z,53.70
2023-02-11T07:11:45.424Z,47.17
2023-02-11T07:14:30.609Z,54.80
2023-02-11T07:17:15.866Z,46.35
2023-02-11T07:20:00.770Z,51.25
2023-02-11T07:22:45.590Z,51.20
2023-02-11T07:25:31.646Z,47.45
2023-02-11T07:28:16.791Z,46.25
2023-02-11T07:31:09.247Z,46.90
2023-02-11T07:33:57.252Z,41.80
2023-02-11T07:36:44.108Z,46.83
2023-02-11T07:39:29.407Z,49.33
2023-02-11T07:42:14.601Z,51.08
2023-02-11T07:44:59.424Z,49.50
2023-02-11T07:47:44.809Z,47.15
2023-02-11T07:50:29.926Z,45.95
2023-02-11T07:53:15.348Z,46.20
2023-02-11T07:56:00.995Z,47.83
2023-02-11T07:58:46.371Z,45.55
2023-02-11T08:01:32.208Z,44.92
2023-02-11T08:04:19.761Z,48.20
2023-02-11T08:09:50.149Z,45.45
2023-02-11T08:12:35.469Z,48.20
2023-02-11T08:15:20.328Z,45.45
2023-02-11T08:18:05.390Z,50.55
2023-02-11T08:20:50.769Z,43.85
2023-02-11T08:23:37.389Z,41.05
2023-02-11T08:26:26.101Z,38.03
2023-02-11T08:29:13.000Z,41.40
2023-02-11T08:31:58.069Z,41.78
2023-02-11T08:34:43.248Z,46.33
2023-02-11T08:37:28.070Z,42.50
2023-02-11T08:40:12.944Z,46.78
2023-02-11T08:42:57.774Z,44.30
2023-02-11T08:45:42.811Z,46.97
2023-02-11T08:48:29.007Z,43.00
2023-02-11T08:51:20.366Z,45.67
2023-02-11T08:54:09.603Z,44.75
2023-02-11T08:56:54.525Z,42.45
2023-02-11T08:59:40.758Z,43.92
2023-02-11T09:02:26.165Z,41.13
2023-02-11T09:05:12.426Z,38.95
2023-02-11T09:07:57.613Z,42.95
2023-02-11T09:10:42.848Z,41.35
2023-02-11T09:13:28.579Z,41.13
2023-02-11T09:16:22.458Z,42.75
2023-02-11T09:21:52.334Z,37.55
2023-02-11T09:24:38.017Z,37.33
2023-02-11T09:27:23.321Z,42.42
2023-02-11T09:30:08.520Z,41.75
2023-02-11T09:32:54.080Z,35.75
2023-02-11T09:35:39.518Z,42.30
2023-02-11T09:38:24.678Z,38.42
2023-02-11T09:41:35.263Z,37.90
2023-02-11T09:44:24.191Z,41.13
2023-02-11T09:47:31.749Z,42.28
2023-02-11T09:50:24.004Z,42.40
2023-02-11T09:53:42.290Z,35.67
2023-02-11T09:56:28.217Z,43.53
2023-02-11T09:59:16.401Z,44.35
2023-02-11T10:02:12.686Z,43.17
2023-02-11T10:05:34.010Z,37.83
2023-02-11T10:08:32.827Z,37.92
2023-02-11T10:11:31.577Z,39.25
2023-02-11T10:14:48.773Z,34.80
2023-02-11T10:18:07.788Z,34.35
2023-02-11T10:21:20.013Z,41.75
2023-02-11T10:24:12.153Z,41.72
2023-02-11T10:26:59.452Z,42.25
2023-02-11T10:30:02.589Z,40.78
2023-02-11T10:33:11.404Z,36.65
2023-02-11T10:35:56.392Z,35.15
2023-02-11T10:38:45.136Z,40.33
2023-02-11T10:41:37.712Z,38.58
2023-02-11T10:44:29.514Z,36.88
2023-02-11T10:47:21.874Z,37.97
2023-02-11T10:50:22.187Z,44.88
2023-02-11T10:53:17.211Z,38.88
2023-02-11T10:56:04.000Z,35.08
2023-02-11T10:59:01.105Z,39.35
2023-02-11T11:02:07.746Z,42.42
2023-02-11T11:04:57.838Z,36.17
2023-02-11T11:07:56.576Z,38.63
2023-02-11T11:11:07.382Z,37.50
2023-02-11T11:13:52.156Z,39.10
2023-02-11T11:16:37.272Z,40.03
2023-02-11T11:19:27.712Z,42.30
2023-02-11T11:22:22.556Z,38.35
2023-02-11T11:25:30.291Z,45.33
2023-02-11T11:28:27.662Z,40.90
2023-02-11T11:31:26.684Z,36.03
2023-02-11T11:34:23.099Z,33.03
2023-02-11T11:37:23.068Z,43.05
2023-02-11T11:40:24.444Z,40.30
2023-02-11T11:43:15.411Z,33.45
2023-02-11T11:46:01.000Z,37.35
2023-02-11T11:48:49.216Z,33.83
2023-02-11T11:51:41.663Z,34.85
2023-02-11T11:54:28.707Z,33.60
2023-02-11T11:57:21.065Z,35.33
2023-02-11T12:00:15.484Z,33.33
2023-02-11T12:03:28.511Z,32.38
2023-02-11T12:06:35.493Z,35.40
2023-02-11T12:09:39.166Z,32.30
2023-02-11T12:12:35.874Z,32.92
2023-02-11T12:15:43.730Z,32.97
2023-02-11T12:19:01.920Z,36.45
2023-02-11T12:22:20.262Z,34.30
2023-02-11T12:25:26.325Z,26.70
2023-02-11T12:28:40.921Z,30.33
2023-02-11T12:31:44.055Z,33.30
2023-02-11T12:35:09.744Z,32.38
2023-02-11T12:38:24.533Z,34.00
2023-02-11T12:42:03.429Z,28.55
2023-02-11T12:45:14.682Z,32.13
2023-02-11T12:48:35.909Z,29.83
2023-02-11T12:51:43.922Z,30.33
2023-02-11T12:54:40.016Z,29.25
2023-02-11T12:57:30.952Z,32.17
2023-02-11T13:00:23.783Z,33.80
2023-02-11T13:03:24.111Z,30.63
2023-02-11T13:06:17.721Z,28.02
2023-02-11T13:09:06.479Z,32.10
2023-02-11T13:11:56.245Z,29.63
2023-02-11T13:14:41.900Z,29.52
2023-02-11T13:17:36.918Z,57.30
2023-02-11T13:20:33.377Z,51.58
2023-02-11T13:23:44.799Z,31.77
2023-02-11T13:26:39.375Z,32.65
2023-02-11T13:30:04.596Z,33.78
2023-02-11T13:32:55.490Z,29.58
2023-02-11T13:35:52.974Z,30.65
2023-02-11T13:38:39.098Z,33.85
2023-02-11T13:41:29.892Z,28.67
2023-02-11T13:44:23.960Z,29.52
2023-02-11T13:47:27.478Z,28.63
2023-02-11T13:50:25.128Z,29.63
2023-02-11T13:53:10.046Z,32.92
2023-02-11T13:56:12.090Z,30.98
2023-02-11T13:59:02.413Z,25.75
2023-02-11T14:02:10.451Z,30.58
2023-02-11T14:05:27.612Z,29.08
2023-02-11T14:08:39.409Z,35.35
2023-02-11T14:11:27.641Z,28.67
2023-02-11T14:17:00.697Z,30.20
2023-02-11T14:19:47.904Z,26.75
2023-02-11T14:22:49.388Z,26.15
2023-02-11T14:25:37.048Z,26.98
2023-02-11T14:28:27.305Z,26.92
2023-02-11T14:31:18.384Z,33.55
2023-02-11T14:34:39.889Z,28.38
2023-02-11T14:38:02.581Z,31.05
2023-02-11T14:41:11.538Z,28.40
2023-02-11T14:44:00.346Z,29.60
2023-02-11T14:46:48.557Z,30.17
2023-02-11T14:49:38.601Z,29.73
2023-02-11T14:52:31.720Z,27.45
2023-02-11T14:55:34.113Z,31.30
2023-02-11T14:58:25.139Z,30.95
2023-02-11T15:01:28.310Z,27.77
2023-02-11T15:04:28.422Z,27.85
2023-02-11T15:07:15.343Z,31.27
2023-02-11T15:10:00.639Z,31.83
2023-02-11T15:12:49.869Z,25.80
2023-02-11T15:15:37.864Z,28.38
2023-02-11T15:18:37.835Z,28.48
2023-02-11T15:21:29.863Z,27.80
2023-02-11T15:24:31.363Z,27.05
2023-02-11T15:27:18.301Z,30.40
2023-02-11T15:30:23.639Z,26.40
2023-02-11T15:33:23.145Z,31.13
2023-02-11T15:39:19.124Z,25.38
2023-02-11T15:42:28.047Z,32.25
2023-02-11T15:45:16.449Z,30.60
2023-02-11T15:48:20.365Z,33.83
2023-02-11T15:51:29.721Z,31.95
2023-02-11T15:54:19.563Z,33.67
2023-02-11T15:57:10.748Z,27.92
2023-02-11T15:59:56.224Z,28.40
2023-02-11T16:02:45.268Z,27.00
2023-02-11T16:05:33.189Z,30.48
2023-02-11T16:08:26.171Z,27.77
2023-02-11T16:11:26.855Z,30.23
2023-02-11T16:14:36.872Z,26.02
2023-02-11T16:17:28.500Z,27.27
2023-02-11T16:20:20.318Z,25.25
2023-02-11T16:23:09.874Z,30.33
2023-02-11T16:26:01.307Z,25.40
2023-02-11T16:28:49.388Z,29.42
2023-02-11T16:31:38.351Z,27.90
2023-02-11T16:34:27.559Z,26.95
2023-02-11T16:37:12.663Z,25.25
2023-02-11T16:40:00.019Z,29.13
2023-02-11T16:42:45.108Z,30.35
2023-02-11T16:45:32.169Z,27.90
2023-02-11T16:48:21.630Z,28.13
2023-02-11T16:51:09.522Z,30.95
2023-02-11T16:56:39.875Z,28.98
2023-02-11T16:59:25.481Z,33.75
2023-02-11T17:02:31.159Z,36.25
2023-02-11T17:05:22.906Z,37.88
2023-02-11T17:08:09.908Z,37.00
2023-02-11T17:10:58.333Z,32.95
2023-02-11T17:13:45.634Z,32.53
2023-02-11T17:16:30.932Z,32.95
2023-02-11T17:19:19.551Z,33.00
2023-02-11T17:22:04.994Z,29.95
2023-02-11T17:24:49.923Z,29.45
2023-02-11T17:27:35.200Z,30.10
2023-02-11T17:30:20.219Z,35.50
2023-02-11T17:33:05.893Z,42.13
2023-02-11T17:35:53.582Z,38.65
2023-02-11T17:38:38.876Z,36.38
2023-02-11T17:41:23.943Z,37.72
2023-02-11T17:44:12.617Z,29.95
2023-02-11T17:46:57.441Z,37.97
2023-02-11T17:49:43.175Z,52.47
2023-02-11T17:52:29.485Z,53.28
2023-02-11T17:55:14.526Z,39.55
2023-02-11T17:58:00.366Z,54.95
2023-02-11T18:00:45.648Z,36.97
2023-02-11T18:03:31.792Z,35.83
2023-02-11T18:06:17.792Z,30.83
2023-02-11T18:09:04.700Z,32.42
2023-02-11T18:11:52.387Z,36.72
2023-02-11T18:14:41.145Z,35.47
2023-02-11T18:17:26.448Z,35.40
2023-02-11T18:20:11.683Z,33.58
2023-02-11T18:22:56.845Z,32.83
2023-02-11T18:25:45.642Z,32.95
2023-02-11T18:28:31.319Z,28.70
2023-02-11T18:31:17.217Z,36.90
2023-02-11T18:34:07.203Z,34.70
2023-02-11T18:36:54.473Z,29.50
2023-02-11T18:42:28.584Z,27.98
2023-02-11T18:45:15.006Z,27.35
2023-02-11T18:48:03.504Z,32.40
2023-02-11T18:50:48.989Z,27.70
2023-02-11T18:53:36.727Z,30.52
2023-02-11T18:56:24.602Z,32.75
2023-02-11T18:59:09.892Z,28.70
2023-02-11T19:01:54.724Z,27.30
2023-02-11T19:04:40.300Z,35.38
2023-02-11T19:07:25.595Z,30.00
2023-02-11T19:10:14.111Z,29.13
2023-02-11T19:13:02.364Z,26.42
2023-02-11T19:15:47.758Z,30.20
2023-02-11T19:18:32.529Z,59.60
2023-02-11T19:21:17.702Z,55.30
2023-02-11T19:24:08.399Z,53.20
2023-02-11T19:26:57.197Z,37.35
2023-02-11T19:29:43.017Z,29.88
2023-02-11T19:32:28.356Z,31.35
2023-02-11T19:35:13.492Z,34.08
2023-02-11T19:37:59.689Z,34.28
2023-02-11T19:40:45.005Z,27.50
2023-02-11T19:43:30.412Z,31.58
2023-02-11T19:46:15.770Z,32.13
2023-02-11T19:49:04.375Z,32.08
2023-02-11T19:51:56.463Z,36.45
2023-02-11T19:54:42.060Z,31.02
2023-02-11T19:57:27.352Z,26.42
2023-02-11T20:00:14.121Z,30.17
2023-02-11T20:02:59.510Z,28.65
2023-02-11T20:05:47.003Z,25.45
2023-02-11T20:08:33.510Z,29.65
2023-02-11T20:11:19.933Z,27.88
2023-02-11T20:14:06.681Z,28.83
2023-02-11T20:16:51.820Z,25.23
2023-02-11T20:19:38.181Z,25.10
2023-02-11T20:22:23.654Z,25.45
2023-02-11T20:25:10.724Z,27.70
2023-02-11T20:27:56.510Z,31.13
2023-02-11T20:30:44.051Z,29.08
2023-02-11T20:33:33.468Z,24.10
2023-02-11T20:36:30.638Z,22.83
2023-02-11T20:39:17.093Z,23.42
2023-02-11T20:42:03.745Z,22.80
2023-02-11T20:44:50.423Z,23.13
2023-02-11T20:47:37.888Z,23.25
2023-02-11T20:55:57.181Z,23.35
2023-02-11T20:58:43.333Z,22.55
2023-02-11T21:01:37.087Z,26.77
2023-02-11T21:04:28.277Z,28.10
2023-02-11T21:07:13.273Z,22.20
2023-02-11T21:09:58.593Z,24.63
2023-02-11T21:12:51.732Z,24.02
2023-02-11T21:15:36.723Z,23.20
2023-02-11T21:18:23.450Z,21.27
2023-02-11T21:21:10.087Z,21.73
2023-02-11T21:23:56.072Z,23.13
2023-02-11T21:26:43.432Z,20.20
2023-02-11T21:29:29.969Z,20.90
2023-02-11T21:32:17.884Z,21.05
2023-02-11T21:35:07.053Z,22.75
2023-02-11T21:37:53.497Z,21.45
2023-02-11T21:40:38.880Z,19.80
2023-02-11T21:43:27.189Z,22.48
2023-02-11T21:46:14.894Z,20.38
2023-02-11T21:49:01.763Z,24.60
2023-02-11T21:51:46.605Z,18.52
2023-02-11T21:54:32.151Z,21.60
2023-02-11T21:57:19.217Z,20.67
2023-02-11T22:00:07.726Z,21.65
2023-02-11T22:02:54.159Z,20.10
2023-02-11T22:05:41.065Z,18.63
2023-02-11T22:08:26.380Z,18.08
2023-02-11T22:11:12.872Z,18.58
2023-02-11T22:13:59.479Z,20.23
2023-02-11T22:16:46.259Z,20.13
2023-02-11T22:19:34.844Z,18.00
2023-02-11T22:22:19.749Z,20.08
2023-02-11T22:25:04.757Z,21.00
2023-02-11T22:27:49.782Z,17.17
2023-02-11T22:30:34.826Z,19.15
2023-02-11T22:33:19.917Z,15.52
2023-02-11T22:36:08.489Z,19.15
2023-02-11T22:38:54.831Z,16.17
2023-02-11T22:41:43.074Z,15.52
2023-02-11T22:44:28.186Z,15.52
2023-02-11T22:47:13.446Z,17.88
2023-02-11T22:49:58.360Z,15.80
2023-02-11T22:52:43.148Z,18.83
2023-02-11T22:55:28.023Z,14.65
2023-02-11T22:58:13.083Z,14.63
2023-02-11T23:00:58.283Z,13.15
2023-02-11T23:03:43.407Z,13.95
2023-02-11T23:06:28.529Z,14.63
2023-02-11T23:09:13.633Z,13.32
2023-02-11T23:11:58.562Z,14.98
2023-02-11T23:14:43.989Z,14.75
2023-02-11T23:17:29.151Z,12.55
2023-02-11T23:20:14.664Z,13.25
2023-02-11T23:22:59.704Z,14.35
2023-02-11T23:25:44.882Z,12.95
2023-02-11T23:28:30.259Z,13.82
2023-02-11T23:31:30.978Z,13.10
2023-02-11T23:34:17.112Z,13.38
2023-02-11T23:37:02.590Z,13.43
2023-02-11T23:39:47.425Z,11.73
2023-02-11T23:42:32.480Z,13.30
2023-02-11T23:45:17.319Z,12.68
2023-02-11T23:48:02.205Z,11.27
2023-02-11T23:50:47.046Z,13.80
2023-02-11T23:53:32.082Z,12.65
2023-02-11T23:56:20.595Z,10.90
2023-02-11T23:59:05.640Z,12.63
